Time;durP1;ratioP1;P1;durP2;ratioP2;P2;SDS_P1;SDS_P2;PMS_P1;PMS_P2;Temp;Humidity;BMP_temperature;BMP_pressure;BME280_temperature;BME280_humidity;BME280_pressure;Samples;Min_cycle;Max_cycle;Signal;HPM_P1;HPM_P2
2021/05/05 00:00:13;;;;;;;13.52;5.45;;;14.40;99.90;;;;;;5015429;28;20022;-76
2021/05/05 00:02:40;;;;;;;15.13;5.90;;;14.40;99.90;;;;;;5004031;28;20084;-77
2021/05/05 00:05:06;;;;;;;13.75;5.00;;;14.40;99.90;;;;;;4999720;28;20029;-76
2021/05/05 00:07:32;;;;;;;10.68;4.93;;;14.50;99.90;;;;;;5010772;28;20022;-77
2021/05/05 00:09:57;;;;;;;16.92;6.05;;;14.50;99.90;;;;;;5005378;28;20113;-75
2021/05/05 00:12:23;;;;;;;9.52;5.88;;;14.40;99.90;;;;;;5006561;28;20025;-77
2021/05/05 00:14:49;;;;;;;14.98;5.25;;;14.40;99.90;;;;;;4992250;28;20037;-77
2021/05/05 00:17:14;;;;;;;14.50;5.50;;;14.40;99.90;;;;;;5009896;28;20030;-76
2021/05/05 00:19:40;;;;;;;16.17;5.18;;;14.40;99.90;;;;;;4991930;28;20396;-77
2021/05/05 00:22:07;;;;;;;15.90;5.30;;;14.30;99.90;;;;;;5009599;28;20032;-77
2021/05/05 00:24:33;;;;;;;10.55;4.97;;;14.30;99.90;;;;;;5003326;28;20018;-76
2021/05/05 00:26:59;;;;;;;9.50;5.28;;;14.30;99.90;;;;;;5010203;28;20591;-76
2021/05/05 00:29:24;;;;;;;13.95;5.07;;;14.30;99.90;;;;;;4990017;28;20108;-76
2021/05/05 00:31:50;;;;;;;6.95;4.35;;;14.30;99.90;;;;;;5007811;28;20096;-76
2021/05/05 00:34:16;;;;;;;12.38;4.70;;;14.30;99.90;;;;;;5002198;28;20056;-76
2021/05/05 00:36:41;;;;;;;10.93;4.88;;;14.30;99.90;;;;;;5005706;28;20034;-77
2021/05/05 00:39:07;;;;;;;18.20;5.03;;;14.40;99.90;;;;;;4995292;28;20030;-78
2021/05/05 00:41:33;;;;;;;12.60;5.15;;;14.30;99.90;;;;;;5008555;28;20026;-77
2021/05/05 00:43:59;;;;;;;13.60;5.18;;;14.30;99.90;;;;;;5007096;28;20037;-77
2021/05/05 00:46:25;;;;;;;10.60;4.57;;;14.20;99.90;;;;;;4994219;28;20022;-77
2021/05/05 00:48:51;;;;;;;16.23;5.40;;;14.20;99.90;;;;;;5007025;28;20034;-77
2021/05/05 00:51:17;;;;;;;8.20;5.03;;;14.20;99.90;;;;;;4991800;28;20029;-76
2021/05/05 00:53:43;;;;;;;10.57;4.68;;;14.20;99.90;;;;;;5004399;28;20034;-76
2021/05/05 00:56:09;;;;;;;7.63;6.22;;;14.20;99.90;;;;;;5011360;28;20026;-77
2021/05/05 00:58:35;;;;;;;13.07;6.18;;;14.20;99.90;;;;;;5009426;28;20022;-76
2021/05/05 01:01:03;;;;;;;12.20;4.38;;;14.30;99.90;;;;;;4991150;28;20038;-77
2021/05/05 01:03:28;;;;;;;9.35;4.78;;;14.30;99.90;;;;;;5009159;28;20080;-77
2021/05/05 01:05:54;;;;;;;11.45;3.95;;;14.40;99.90;;;;;;5013281;28;20026;-77
2021/05/05 01:08:21;;;;;;;10.95;4.57;;;14.50;99.90;;;;;;5013108;28;20360;-77
2021/05/05 01:10:48;;;;;;;10.43;5.03;;;14.50;99.90;;;;;;5005854;28;20116;-76
2021/05/05 01:13:14;;;;;;;12.02;4.45;;;14.50;99.90;;;;;;5005037;28;20104;-77
2021/05/05 01:15:41;;;;;;;11.45;4.00;;;14.50;99.90;;;;;;4998293;28;20025;-77
2021/05/05 01:18:07;;;;;;;12.60;4.45;;;14.50;99.90;;;;;;5013801;28;20546;-77
2021/05/05 01:20:33;;;;;;;8.80;4.32;;;14.50;99.90;;;;;;5013070;28;20046;-76
2021/05/05 01:22:58;;;;;;;10.98;4.15;;;14.60;99.90;;;;;;4997122;28;20136;-76
2021/05/05 01:25:25;;;;;;;9.65;4.28;;;14.50;99.90;;;;;;5010369;28;20030;-78
2021/05/05 01:27:51;;;;;;;8.73;4.15;;;14.50;99.90;;;;;;4994515;28;20033;-76
2021/05/05 01:30:20;;;;;;;8.23;3.90;;;14.50;99.90;;;;;;5008196;28;20130;-77
2021/05/05 01:32:47;;;;;;;7.65;3.97;;;14.50;99.90;;;;;;5003601;28;20029;-77
2021/05/05 01:35:14;;;;;;;10.70;4.78;;;14.40;99.90;;;;;;4996164;28;20641;-76
2021/05/05 01:37:41;;;;;;;9.80;4.32;;;14.40;99.90;;;;;;5005073;28;20496;-76
2021/05/05 01:40:09;;;;;;;8.38;4.78;;;14.50;99.90;;;;;;5013541;28;20030;-76
2021/05/05 01:42:35;;;;;;;12.30;5.60;;;14.40;99.90;;;;;;5011274;28;20090;-76
2021/05/05 01:45:01;;;;;;;13.00;4.78;;;14.40;99.90;;;;;;5017220;28;20049;-76
2021/05/05 01:47:27;;;;;;;10.13;5.15;;;14.40;99.90;;;;;;5014388;28;20057;-75
2021/05/05 01:49:53;;;;;;;9.50;4.55;;;14.40;99.90;;;;;;5009466;28;20061;-76
2021/05/05 01:52:19;;;;;;;14.23;4.72;;;14.40;99.90;;;;;;5011280;28;20038;-76
2021/05/05 01:54:45;;;;;;;8.80;4.28;;;14.40;99.90;;;;;;5013853;28;20033;-76
2021/05/05 01:57:37;;;;;;;10.45;5.07;;;14.40;99.90;;;;;;5010500;28;20097;-76
2021/05/05 02:00:12;;;;;;;9.55;4.47;;;14.40;99.90;;;;;;4995767;28;20045;-76
2021/05/05 02:02:38;;;;;;;12.57;4.60;;;14.40;99.90;;;;;;5007403;28;20030;-76
2021/05/05 02:05:05;;;;;;;12.60;4.43;;;14.40;99.90;;;;;;5008308;28;20034;-77
2021/05/05 02:07:31;;;;;;;10.20;3.63;;;14.40;99.90;;;;;;4997047;28;20030;-76
2021/05/05 02:09:57;;;;;;;8.60;3.88;;;14.40;99.90;;;;;;4993520;28;20083;-77
2021/05/05 02:12:23;;;;;;;9.23;4.60;;;14.40;99.90;;;;;;5010099;28;20029;-76
2021/05/05 02:14:49;;;;;;;18.90;5.07;;;14.40;99.90;;;;;;5001815;28;20038;-77
2021/05/05 02:17:16;;;;;;;12.40;4.40;;;14.30;99.90;;;;;;5012052;28;20503;-76
2021/05/05 02:19:43;;;;;;;12.07;4.82;;;14.30;99.90;;;;;;5005921;28;20060;-77
2021/05/05 02:22:09;;;;;;;11.13;4.47;;;14.30;99.90;;;;;;5013370;28;20037;-77
2021/05/05 02:24:35;;;;;;;8.00;4.28;;;14.20;99.90;;;;;;5015565;28;20022;-76
2021/05/05 02:27:01;;;;;;;10.98;4.95;;;14.30;99.90;;;;;;5008188;28;20525;-77
2021/05/05 02:29:27;;;;;;;7.43;4.32;;;14.20;99.90;;;;;;5006852;28;20030;-76
2021/05/05 02:31:53;;;;;;;13.45;5.18;;;14.20;99.90;;;;;;5004677;28;20033;-77
2021/05/05 02:34:19;;;;;;;14.55;4.78;;;14.20;99.90;;;;;;5006940;28;20034;-76
2021/05/05 02:36:45;;;;;;;9.18;3.92;;;14.20;99.90;;;;;;5005929;28;20510;-76
2021/05/05 02:39:12;;;;;;;8.32;4.22;;;14.20;99.90;;;;;;5011949;28;20034;-76
2021/05/05 02:41:42;;;;;;;7.18;4.47;;;14.20;99.90;;;;;;5010150;28;20036;-75
2021/05/05 02:44:08;;;;;;;6.75;4.75;;;14.20;99.90;;;;;;5010173;28;20045;-75
2021/05/05 02:46:34;;;;;;;11.35;4.82;;;14.20;99.90;;;;;;5012383;28;20073;-77
2021/05/05 02:49:00;;;;;;;7.38;3.88;;;14.20;99.90;;;;;;4992830;28;20038;-77
2021/05/05 02:51:26;;;;;;;13.40;5.00;;;14.20;99.90;;;;;;5004747;28;20026;-77
2021/05/05 02:53:52;;;;;;;11.27;4.32;;;14.10;99.90;;;;;;5011423;28;20037;-77
2021/05/05 02:56:18;;;;;;;7.90;4.22;;;14.10;99.90;;;;;;4983956;28;20030;-77
2021/05/05 02:58:43;;;;;;;9.15;4.55;;;14.10;99.90;;;;;;5006334;28;20072;-76
2021/05/05 03:01:09;;;;;;;7.28;4.00;;;14.00;99.90;;;;;;5007384;28;20432;-77
2021/05/05 03:03:35;;;;;;;4.85;3.90;;;14.10;99.90;;;;;;5008156;28;20030;-76
2021/05/05 03:06:01;;;;;;;10.32;4.15;;;13.90;99.90;;;;;;5011376;28;20178;-77
2021/05/05 03:08:26;;;;;;;9.25;4.00;;;13.90;99.90;;;;;;5010228;28;22040;-77
2021/05/05 03:10:52;;;;;;;12.65;4.25;;;13.80;99.90;;;;;;5009172;28;20100;-75
2021/05/05 03:13:18;;;;;;;8.57;3.97;;;13.80;99.90;;;;;;4985990;28;20041;-77
2021/05/05 03:15:44;;;;;;;9.48;4.50;;;13.80;99.90;;;;;;4992435;28;20322;-76
2021/05/05 03:18:09;;;;;;;7.13;4.70;;;13.80;99.90;;;;;;4989343;28;20500;-77
2021/05/05 03:20:35;;;;;;;8.40;4.10;;;13.80;99.90;;;;;;4984921;28;20081;-77
2021/05/05 03:23:01;;;;;;;6.70;4.07;;;13.80;99.90;;;;;;5002207;28;20037;-79
2021/05/05 03:25:27;;;;;;;10.60;4.65;;;13.80;99.90;;;;;;5011718;28;20384;-77
2021/05/05 03:27:53;;;;;;;6.82;4.57;;;13.80;99.90;;;;;;5005863;28;20551;-77
2021/05/05 03:30:20;;;;;;;7.90;4.15;;;13.80;99.90;;;;;;5011351;28;20014;-76
2021/05/05 03:32:46;;;;;;;13.00;4.28;;;13.70;99.90;;;;;;4991245;28;20084;-78
2021/05/05 03:35:12;;;;;;;6.65;5.03;;;13.70;99.90;;;;;;5004601;28;21325;-78
2021/05/05 03:37:37;;;;;;;11.07;3.53;;;13.70;99.90;;;;;;5012635;28;20025;-76
2021/05/05 03:40:05;;;;;;;10.63;4.55;;;13.60;99.90;;;;;;5016094;28;20033;-76
2021/05/05 03:42:31;;;;;;;8.30;3.40;;;13.70;99.90;;;;;;5031220;28;20028;-77
2021/05/05 03:44:58;;;;;;;9.10;4.05;;;13.70;99.90;;;;;;5029964;28;20029;-79
2021/05/05 03:47:24;;;;;;;13.38;4.72;;;13.60;99.90;;;;;;5008356;28;20048;-77
2021/05/05 03:49:50;;;;;;;7.82;3.28;;;13.70;99.90;;;;;;5013292;28;20034;-77
2021/05/05 03:52:16;;;;;;;12.98;4.13;;;13.70;99.90;;;;;;5008534;28;20557;-76
2021/05/05 03:54:42;;;;;;;9.95;4.03;;;13.70;99.90;;;;;;5003723;28;20030;-77
2021/05/05 03:57:07;;;;;;;14.25;4.97;;;13.70;99.90;;;;;;5008615;28;20105;-77
2021/05/05 03:59:33;;;;;;;15.80;4.97;;;13.70;99.90;;;;;;4988838;28;20033;-77
2021/05/05 04:01:59;;;;;;;8.88;4.93;;;13.70;99.90;;;;;;4992910;28;20064;-79
2021/05/05 04:04:25;;;;;;;12.95;5.38;;;13.80;99.90;;;;;;5011252;28;20024;-76
2021/05/05 04:06:50;;;;;;;6.90;4.20;;;13.80;99.90;;;;;;5009415;28;20030;-77
2021/05/05 04:09:16;;;;;;;11.55;5.00;;;13.80;99.90;;;;;;5013733;28;20057;-78
2021/05/05 04:11:42;;;;;;;7.32;4.38;;;13.80;99.90;;;;;;5015279;28;20094;-78
2021/05/05 04:14:08;;;;;;;5.53;3.42;;;13.90;99.90;;;;;;4994370;28;20057;-77
2021/05/05 04:16:35;;;;;;;7.53;3.72;;;13.90;99.90;;;;;;5013169;28;20048;-76
2021/05/05 04:19:00;;;;;;;9.68;3.33;;;13.90;99.90;;;;;;5002046;28;20129;-75
2021/05/05 04:21:27;;;;;;;10.10;4.05;;;13.90;99.90;;;;;;5008552;28;20100;-75
2021/05/05 04:23:53;;;;;;;5.60;4.25;;;14.00;99.90;;;;;;5006082;28;20029;-77
2021/05/05 04:26:20;;;;;;;6.25;3.80;;;14.00;99.90;;;;;;5007932;28;20468;-77
2021/05/05 04:28:47;;;;;;;6.93;4.00;;;14.00;99.90;;;;;;5011604;28;20044;-76
2021/05/05 04:31:13;;;;;;;11.45;4.65;;;14.10;99.90;;;;;;5007413;28;20018;-76
2021/05/05 04:33:42;;;;;;;13.90;4.60;;;14.10;99.90;;;;;;5002805;28;20030;-76
2021/05/05 04:36:08;;;;;;;14.15;5.03;;;14.10;99.90;;;;;;4996422;28;20018;-78
2021/05/05 04:38:34;;;;;;;7.88;4.60;;;14.10;99.90;;;;;;5016457;28;20022;-78
2021/05/05 04:40:59;;;;;;;11.05;5.65;;;14.20;99.90;;;;;;4986926;28;20530;-77
2021/05/05 04:43:25;;;;;;;8.13;3.50;;;14.40;99.90;;;;;;5000201;28;20480;-77
2021/05/05 04:45:51;;;;;;;9.55;4.22;;;14.40;99.90;;;;;;5002407;28;20040;-76
2021/05/05 04:48:17;;;;;;;10.85;4.93;;;14.40;99.90;;;;;;5006004;28;20108;-78
2021/05/05 04:50:43;;;;;;;14.50;4.50;;;14.50;99.90;;;;;;5012125;28;20026;-78
2021/05/05 04:53:09;;;;;;;8.32;4.47;;;14.50;99.90;;;;;;5013493;28;20037;-77
2021/05/05 04:55:35;;;;;;;8.25;3.45;;;14.50;99.90;;;;;;4987085;28;20637;-77
2021/05/05 04:58:01;;;;;;;11.35;3.97;;;14.50;99.90;;;;;;5000575;28;20401;-77
2021/05/05 05:00:27;;;;;;;9.77;4.57;;;14.50;99.90;;;;;;5003051;28;20029;-78
2021/05/05 05:02:53;;;;;;;8.85;4.88;;;14.50;99.90;;;;;;5005516;28;20086;-79
2021/05/05 05:05:22;;;;;;;9.90;3.78;;;14.50;99.90;;;;;;5004725;28;20073;-77
2021/05/05 05:07:47;;;;;;;12.20;4.40;;;14.50;99.90;;;;;;5010203;28;20030;-79
2021/05/05 05:10:13;;;;;;;6.28;3.80;;;14.60;99.90;;;;;;5007100;28;20584;-78
2021/05/05 05:12:39;;;;;;;11.77;4.72;;;14.70;99.90;;;;;;5011744;28;20022;-77
2021/05/05 05:15:07;;;;;;;8.82;3.75;;;14.70;99.90;;;;;;4998125;28;20092;-78
2021/05/05 05:17:33;;;;;;;7.05;3.67;;;14.80;99.90;;;;;;5017889;28;20026;-77
2021/05/05 05:19:59;;;;;;;8.80;4.50;;;14.70;99.90;;;;;;5016317;28;20025;-78
2021/05/05 05:22:25;;;;;;;7.30;4.35;;;14.70;99.90;;;;;;5021288;28;20033;-77
2021/05/05 05:24:51;;;;;;;14.00;4.75;;;14.80;99.90;;;;;;5013808;28;20084;-79
2021/05/05 05:27:17;;;;;;;11.77;4.93;;;14.90;99.90;;;;;;5016599;28;20030;-77
2021/05/05 05:29:43;;;;;;;7.43;4.45;;;14.80;99.90;;;;;;5008033;28;20046;-77
2021/05/05 05:32:09;;;;;;;10.30;4.63;;;14.80;99.90;;;;;;5015755;28;20053;-77
2021/05/05 05:34:35;;;;;;;11.10;5.68;;;15.00;99.90;;;;;;5019895;28;20030;-77
2021/05/05 05:37:00;;;;;;;15.68;4.30;;;15.10;99.90;;;;;;5009595;28;20026;-78
2021/05/05 05:39:27;;;;;;;9.85;3.58;;;15.10;99.90;;;;;;5011969;28;20037;-79
2021/05/05 05:41:52;;;;;;;11.52;4.00;;;15.20;99.90;;;;;;4994363;28;20756;-78
2021/05/05 05:44:19;;;;;;;6.03;4.40;;;15.30;99.90;;;;;;4996389;28;20115;-78
2021/05/05 05:46:45;;;;;;;13.82;3.75;;;15.50;99.90;;;;;;5014110;28;20026;-78
2021/05/05 05:49:11;;;;;;;8.93;5.13;;;15.60;99.90;;;;;;5013045;28;20218;-78
2021/05/05 05:51:37;;;;;;;15.02;6.47;;;15.60;99.90;;;;;;5012827;28;20024;-79
2021/05/05 05:54:04;;;;;;;17.75;4.75;;;15.80;99.90;;;;;;4998569;28;20026;-79
2021/05/05 05:56:31;;;;;;;12.55;5.18;;;15.70;99.90;;;;;;5018168;28;20057;-78
2021/05/05 05:58:58;;;;;;;10.57;4.55;;;15.80;99.90;;;;;;5000710;28;20030;-79
2021/05/05 06:01:23;;;;;;;9.88;4.45;;;15.90;99.90;;;;;;5016795;28;20049;-78
2021/05/05 06:03:49;;;;;;;9.18;4.60;;;15.90;99.90;;;;;;5016116;28;20499;-78
2021/05/05 06:06:15;;;;;;;10.80;4.25;;;16.00;99.90;;;;;;4993125;28;20058;-78
2021/05/05 06:08:41;;;;;;;14.70;3.80;;;16.20;99.90;;;;;;5017884;28;20030;-79
2021/05/05 06:11:06;;;;;;;15.88;6.60;;;16.20;99.90;;;;;;5006862;28;20026;-78
2021/05/05 06:13:32;;;;;;;8.57;4.22;;;16.40;99.90;;;;;;5019059;28;20484;-79
2021/05/05 06:15:58;;;;;;;13.38;4.65;;;16.40;99.90;;;;;;4982656;28;20026;-78
2021/05/05 06:18:25;;;;;;;11.38;4.07;;;16.50;99.90;;;;;;5011194;28;20044;-78
2021/05/05 06:20:51;;;;;;;8.50;3.20;;;16.40;99.90;;;;;;5017797;28;20026;-79
2021/05/05 06:23:17;;;;;;;12.27;4.07;;;16.40;99.90;;;;;;5002143;28;20451;-79
2021/05/05 06:25:42;;;;;;;7.07;4.18;;;16.40;99.90;;;;;;5010376;28;20029;-79
2021/05/05 06:28:08;;;;;;;11.00;4.38;;;16.60;99.90;;;;;;5010873;28;20161;-78
2021/05/05 06:30:34;;;;;;;9.27;3.72;;;16.60;99.90;;;;;;5004176;28;20421;-79
2021/05/05 06:33:00;;;;;;;5.20;3.67;;;16.60;99.90;;;;;;5001799;28;20048;-78
2021/05/05 06:35:26;;;;;;;15.13;4.72;;;16.70;99.90;;;;;;4994496;28;20030;-80
2021/05/05 06:37:51;;;;;;;11.10;3.95;;;16.80;99.90;;;;;;5016724;28;20041;-79
2021/05/05 06:40:19;;;;;;;11.38;4.13;;;16.90;99.90;;;;;;5015744;28;20030;-79
2021/05/05 06:42:45;;;;;;;8.20;4.10;;;17.10;99.90;;;;;;4999541;28;20014;-79
2021/05/05 06:45:11;;;;;;;8.07;4.70;;;17.10;99.90;;;;;;4998441;28;20021;-79
2021/05/05 06:47:37;;;;;;;7.55;3.92;;;17.20;99.90;;;;;;5018606;28;20087;-78
2021/05/05 06:50:05;;;;;;;5.78;3.42;;;17.20;99.90;;;;;;5014318;28;20038;-78
2021/05/05 06:52:30;;;;;;;7.18;3.90;;;17.30;99.90;;;;;;5021957;28;20169;-79
2021/05/05 06:54:56;;;;;;;7.43;3.97;;;17.50;99.90;;;;;;5015039;28;20152;-79
2021/05/05 06:57:22;;;;;;;9.48;4.72;;;17.70;99.90;;;;;;5011034;28;20038;-79
2021/05/05 06:59:47;;;;;;;5.95;4.00;;;17.90;99.90;;;;;;5002913;28;20017;-78
2021/05/05 07:02:13;;;;;;;9.88;4.03;;;18.20;99.90;;;;;;5003728;28;20030;-78
2021/05/05 07:04:39;;;;;;;9.25;4.20;;;18.20;99.90;;;;;;5006040;28;20029;-79
2021/05/05 07:07:05;;;;;;;14.55;4.60;;;18.00;99.90;;;;;;5007278;28;20385;-79
2021/05/05 07:09:30;;;;;;;12.45;4.13;;;18.00;99.90;;;;;;5009640;28;20053;-78
2021/05/05 07:11:56;;;;;;;11.27;5.68;;;17.80;99.90;;;;;;5017572;28;20053;-79
2021/05/05 07:14:22;;;;;;;15.00;4.60;;;17.90;99.90;;;;;;5017624;28;20034;-79
2021/05/05 07:16:48;;;;;;;8.63;4.65;;;17.90;99.90;;;;;;5018675;28;20041;-79
2021/05/05 07:19:13;;;;;;;9.02;4.80;;;18.10;99.90;;;;;;5019234;28;20104;-79
2021/05/05 07:21:39;;;;;;;5.97;3.83;;;18.40;99.90;;;;;;5019519;28;20018;-79
2021/05/05 07:24:06;;;;;;;6.80;4.97;;;18.80;99.90;;;;;;5027366;28;20734;-80
2021/05/05 07:26:31;;;;;;;7.68;4.88;;;19.00;99.90;;;;;;5032250;28;20034;-78
2021/05/05 07:28:57;;;;;;;10.40;5.20;;;19.20;99.90;;;;;;5024118;28;20113;-77
2021/05/05 07:31:23;;;;;;;12.10;4.90;;;19.40;99.90;;;;;;5000280;28;20030;-77
2021/05/05 07:33:51;;;;;;;10.15;4.55;;;19.40;99.90;;;;;;5022334;28;20030;-77
2021/05/05 07:36:20;;;;;;;11.05;4.47;;;19.20;99.90;;;;;;5009578;28;20026;-79
2021/05/05 07:42:20;;;;;;;7.95;4.30;;;18.80;99.90;;;;;;5016804;28;20022;-79
2021/05/05 07:49:29;;;;;;;10.07;6.03;;;18.90;99.90;;;;;;4974965;28;20034;-77
2021/05/05 07:51:55;;;;;;;13.18;5.55;;;18.90;99.90;;;;;;4993303;28;20033;-76
2021/05/05 07:54:22;;;;;;;10.90;4.70;;;18.70;99.90;;;;;;5013698;28;20219;-78
2021/05/05 07:56:49;;;;;;;10.50;5.75;;;18.40;99.90;;;;;;5009031;28;20121;-77
2021/05/05 07:59:15;;;;;;;7.95;4.97;;;18.30;99.90;;;;;;4986722;28;20558;-77
2021/05/05 08:01:41;;;;;;;12.23;5.82;;;18.40;99.90;;;;;;5008993;28;20030;-76
2021/05/05 08:04:07;;;;;;;12.90;4.95;;;18.50;99.90;;;;;;5008365;28;20038;-76
2021/05/05 08:06:33;;;;;;;10.10;4.30;;;18.60;99.90;;;;;;5006904;28;20025;-76
2021/05/05 08:08:59;;;;;;;16.42;5.93;;;18.50;99.90;;;;;;5008631;28;20033;-76
2021/05/05 08:11:26;;;;;;;7.85;4.53;;;18.30;99.90;;;;;;5009507;28;20033;-76
2021/05/05 08:13:52;;;;;;;11.93;4.85;;;18.30;99.90;;;;;;5006681;28;20036;-77
2021/05/05 08:16:19;;;;;;;16.83;4.95;;;18.30;99.90;;;;;;4993070;28;20072;-76
2021/05/05 08:18:46;;;;;;;7.55;4.82;;;18.20;99.90;;;;;;5005254;28;20542;-76
2021/05/05 08:21:12;;;;;;;10.40;4.60;;;18.20;99.90;;;;;;4997657;28;20025;-77
2021/05/05 08:23:39;;;;;;;14.77;5.40;;;18.20;99.90;;;;;;5010253;28;20088;-77
2021/05/05 08:26:06;;;;;;;12.25;4.35;;;18.20;99.90;;;;;;4992371;28;20033;-76
2021/05/05 08:28:34;;;;;;;13.45;5.50;;;18.30;99.90;;;;;;5012354;28;20021;-77
2021/05/05 08:31:00;;;;;;;10.85;4.78;;;18.20;99.90;;;;;;5010000;28;20029;-77
2021/05/05 08:33:25;;;;;;;16.88;5.68;;;18.10;99.90;;;;;;5006286;28;20028;-76
2021/05/05 08:35:51;;;;;;;10.93;5.00;;;18.10;99.90;;;;;;5008381;28;20381;-76
2021/05/05 08:38:17;;;;;;;16.08;6.10;;;18.00;99.90;;;;;;5010573;28;20472;-77
2021/05/05 08:40:43;;;;;;;9.48;5.10;;;18.00;99.90;;;;;;4995783;28;20030;-75
2021/05/05 08:43:09;;;;;;;8.07;4.00;;;17.90;99.90;;;;;;5006893;28;20022;-76
2021/05/05 08:45:35;;;;;;;10.40;4.45;;;18.00;99.90;;;;;;4990200;28;20125;-76
2021/05/05 08:48:04;;;;;;;11.50;4.97;;;17.90;99.90;;;;;;5007228;28;20018;-77
2021/05/05 08:50:33;;;;;;;12.45;4.80;;;18.00;99.90;;;;;;5008075;28;20099;-78
2021/05/05 08:53:00;;;;;;;11.45;4.40;;;18.00;99.90;;;;;;5006979;28;20022;-77
2021/05/05 08:55:27;;;;;;;12.75;5.32;;;18.10;99.90;;;;;;5009571;28;20018;-76
2021/05/05 08:57:53;;;;;;;9.45;5.10;;;18.10;99.90;;;;;;5007440;28;20038;-78
2021/05/05 09:00:31;;;;;;;12.48;4.75;;;18.00;99.90;;;;;;5009401;28;20026;-77
2021/05/05 09:02:58;;;;;;;11.02;3.92;;;18.20;99.90;;;;;;5008707;28;20033;-76
2021/05/05 09:05:24;;;;;;;16.65;5.38;;;18.10;99.90;;;;;;4984569;28;20018;-77
2021/05/05 09:07:50;;;;;;;9.88;5.43;;;18.10;99.90;;;;;;5009014;28;20114;-77
2021/05/05 09:10:20;;;;;;;11.02;4.70;;;18.10;99.90;;;;;;5010508;28;20029;-76
2021/05/05 09:12:49;;;;;;;8.45;3.88;;;18.10;99.90;;;;;;5007291;28;20674;-75
2021/05/05 09:15:23;;;;;;;11.48;4.57;;;18.20;99.90;;;;;;5008366;28;20064;-75
2021/05/05 09:17:53;;;;;;;7.18;4.38;;;18.20;99.90;;;;;;5008050;28;20029;-78
2021/05/05 09:20:35;;;;;;;8.27;4.05;;;18.40;99.90;;;;;;5009465;28;20044;-76
2021/05/05 09:23:03;;;;;;;12.45;4.22;;;18.40;99.90;;;;;;5011588;28;20052;-76
2021/05/05 09:25:29;;;;;;;7.88;4.13;;;18.30;99.90;;;;;;5005636;28;20026;-76
2021/05/05 09:28:10;;;;;;;6.13;3.92;;;18.10;99.90;;;;;;5000526;28;20026;-75
2021/05/05 09:30:36;;;;;;;4.05;3.17;;;18.10;99.90;;;;;;5010083;28;20427;-76
2021/05/05 09:33:03;;;;;;;5.40;3.67;;;18.10;99.90;;;;;;5013767;28;20052;-74
2021/05/05 09:35:39;;;;;;;14.02;4.28;;;18.20;99.90;;;;;;4997407;28;20086;-76
2021/05/05 09:38:11;;;;;;;6.22;3.85;;;18.20;99.90;;;;;;5013099;28;20030;-75
2021/05/05 09:40:42;;;;;;;;;;;18.30;99.90;;;;;;5014587;28;20024;-73
2021/05/05 09:43:16;;;;;;;6.93;3.90;;;18.50;99.90;;;;;;5013344;28;19917;-75
2021/05/05 09:45:43;;;;;;;10.27;3.40;;;18.50;99.90;;;;;;4990343;28;20277;-74
2021/05/05 09:48:09;;;;;;;8.32;4.00;;;18.50;99.90;;;;;;5007454;28;20072;-74
2021/05/05 09:50:42;;;;;;;11.05;3.55;;;18.60;99.90;;;;;;5013077;28;20110;-76
2021/05/05 09:53:22;;;;;;;26.15;5.38;;;18.70;99.90;;;;;;4993565;28;20029;-75
2021/05/05 09:55:57;;;;;;;5.72;3.15;;;18.80;99.90;;;;;;5011586;28;20492;-76
2021/05/05 09:58:26;;;;;;;11.52;4.28;;;18.90;99.90;;;;;;5013488;28;20038;-76
2021/05/05 10:01:04;;;;;;;6.57;2.70;;;18.90;99.90;;;;;;5012575;28;20034;-76
2021/05/05 10:03:55;;;;;;;10.95;3.60;;;18.70;99.90;;;;;;5012220;28;20029;-76
2021/05/05 10:06:28;;;;;;;7.45;3.47;;;18.70;99.90;;;;;;5007275;28;20053;-75
2021/05/05 10:08:58;;;;;;;6.78;4.22;;;19.00;99.90;;;;;;5015384;28;20041;-78
2021/05/05 10:11:45;;;;;;;7.07;3.63;;;19.10;99.90;;;;;;5011475;28;20060;-75
2021/05/05 10:14:14;;;;;;;10.85;4.40;;;19.00;99.90;;;;;;4995163;28;20033;-75
2021/05/05 10:16:42;;;;;;;4.45;3.25;;;19.10;99.90;;;;;;5010608;28;20624;-75
2021/05/05 10:19:19;;;;;;;8.48;3.45;;;19.10;99.90;;;;;;5012295;28;20041;-76
2021/05/05 10:21:56;;;;;;;8.25;3.30;;;19.00;99.90;;;;;;4994396;28;20062;-76
2021/05/05 10:24:22;;;;;;;7.35;3.33;;;19.00;99.90;;;;;;4993749;28;20088;-76
2021/05/05 10:26:48;;;;;;;9.27;4.03;;;19.00;99.90;;;;;;5008926;28;20026;-76
2021/05/05 10:29:15;;;;;;;5.03;4.00;;;19.10;99.90;;;;;;5012146;28;20049;-76
2021/05/05 10:31:42;;;;;;;6.70;3.08;;;19.10;99.90;;;;;;5009806;28;20034;-76
2021/05/05 10:34:20;;;;;;;8.38;2.83;;;19.40;99.90;;;;;;5011807;28;20393;-75
2021/05/05 10:36:51;;;;;;;6.13;3.50;;;19.40;99.90;;;;;;5010720;28;20032;-75
2021/05/05 10:39:17;;;;;;;4.78;3.05;;;19.50;99.90;;;;;;4995804;28;20025;-75
2021/05/05 10:41:59;;;;;;;9.88;3.20;;;19.70;99.90;;;;;;4992936;28;20022;-77
2021/05/05 10:44:34;;;;;;;9.60;4.15;;;19.80;99.90;;;;;;5005904;28;20064;-76
2021/05/05 10:47:31;;;;;;;8.82;3.75;;;20.00;99.90;;;;;;5002724;28;20076;-75
2021/05/05 10:50:03;;;;;;;9.02;3.15;;;20.50;99.90;;;;;;5004193;28;20366;-73
2021/05/05 10:52:42;;;;;;;7.68;3.00;;;20.70;99.90;;;;;;5005533;28;20580;-74
2021/05/05 10:55:29;;;;;;;9.93;3.00;;;21.10;99.90;;;;;;5010603;28;20118;-76
2021/05/05 10:58:13;;;;;;;5.95;3.40;;;21.10;99.90;;;;;;5007125;28;20034;-75
2021/05/05 11:01:08;;;;;;;8.25;2.85;;;20.90;99.90;;;;;;5008885;28;20026;-74
2021/05/05 11:03:44;;;;;;;7.78;3.05;;;20.60;99.90;;;;;;4986614;28;20045;-74
2021/05/05 11:06:29;;;;;;;8.70;3.50;;;20.20;99.90;;;;;;4989866;28;20104;-76
2021/05/05 11:08:55;;;;;;;8.38;3.75;;;20.00;99.90;;;;;;5010920;28;20022;-75
2021/05/05 11:11:38;;;;;;;9.95;3.65;;;19.70;99.90;;;;;;5011451;28;20275;-77
2021/05/05 11:14:04;;;;;;;11.73;4.00;;;19.60;99.90;;;;;;5010706;28;20048;-76
2021/05/05 11:16:57;;;;;;;11.35;3.47;;;19.40;99.90;;;;;;5009678;28;20030;-76
2021/05/05 11:19:35;;;;;;;8.95;4.57;;;19.20;99.90;;;;;;4991549;28;20022;-75
2021/05/05 11:22:20;;;;;;;8.25;3.20;;;19.00;99.90;;;;;;5013327;28;20030;-76
2021/05/05 11:24:47;;;;;;;15.82;3.97;;;18.90;99.90;;;;;;5009599;28;20022;-76
2021/05/05 11:27:15;;;;;;;7.25;3.15;;;18.90;99.90;;;;;;5007096;28;20115;-76
2021/05/05 11:29:47;;;;;;;10.35;4.03;;;18.70;99.90;;;;;;4985041;28;20652;-76
2021/05/05 11:32:19;;;;;;;18.58;3.70;;;18.60;99.90;;;;;;5006652;28;20097;-75
2021/05/05 11:34:46;;;;;;;13.80;4.35;;;18.50;99.90;;;;;;4999007;28;20101;-76
2021/05/05 11:37:20;;;;;;;11.32;4.22;;;18.30;99.90;;;;;;5009239;28;20029;-76
2021/05/05 11:39:53;;;;;;;7.78;3.53;;;18.20;99.90;;;;;;4994939;28;20026;-76
2021/05/05 11:42:25;;;;;;;8.77;3.67;;;18.10;99.90;;;;;;4993144;28;20030;-78
2021/05/05 11:45:01;;;;;;;4.93;3.40;;;18.10;99.90;;;;;;5011047;28;20021;-76
2021/05/05 11:47:31;;;;;;;4.75;3.75;;;18.10;99.90;;;;;;5009573;28;20076;-77
2021/05/05 11:50:01;;;;;;;8.70;3.92;;;18.10;99.90;;;;;;5008513;28;20104;-75
2021/05/05 11:52:30;;;;;;;14.35;3.70;;;18.30;99.90;;;;;;5004674;28;20592;-76
2021/05/05 11:55:08;;;;;;;6.85;3.63;;;18.30;99.90;;;;;;5006862;28;20091;-77
2021/05/05 11:57:39;;;;;;;11.75;3.95;;;18.40;99.90;;;;;;5007535;28;20034;-75
2021/05/05 12:00:13;;;;;;;11.68;3.90;;;18.40;99.90;;;;;;5008852;28;20025;-76
2021/05/05 12:02:47;;;;;;;21.15;4.65;;;18.50;99.90;;;;;;5009372;28;20109;-77
2021/05/05 12:05:25;;;;;;;14.50;3.90;;;18.50;99.90;;;;;;5006898;28;20022;-78
2021/05/05 12:08:14;;;;;;;13.85;4.38;;;18.60;99.90;;;;;;5009050;28;20050;-77
2021/05/05 12:10:45;;;;;;;6.88;3.50;;;18.80;99.90;;;;;;5005509;28;20022;-75
2021/05/05 12:13:19;;;;;;;8.15;3.25;;;18.80;99.90;;;;;;4990803;28;20057;-77
2021/05/05 12:15:55;;;;;;;6.35;4.35;;;18.80;99.90;;;;;;5009917;28;20026;-77
2021/05/05 12:18:27;;;;;;;8.00;5.18;;;18.80;99.90;;;;;;5004655;28;20033;-76
2021/05/05 12:20:59;;;;;;;14.70;3.38;;;18.80;99.90;;;;;;4998811;28;20030;-77
2021/05/05 12:23:33;;;;;;;;;;;18.80;99.90;;;;;;5006299;28;20033;-76
2021/05/05 12:25:58;;;;;;;9.13;4.28;;;19.10;99.90;;;;;;5008539;28;19909;-76
2021/05/05 12:28:24;;;;;;;6.22;3.72;;;19.30;99.90;;;;;;5009352;28;20029;-77
2021/05/05 12:30:55;;;;;;;7.82;3.70;;;19.50;99.90;;;;;;5008072;28;20092;-76
2021/05/05 12:33:30;;;;;;;6.75;2.72;;;19.70;99.90;;;;;;4989019;28;20153;-76
2021/05/05 12:35:56;;;;;;;4.65;3.28;;;19.80;99.90;;;;;;5009117;28;20029;-75
2021/05/05 12:38:22;;;;;;;5.88;2.92;;;19.70;99.90;;;;;;5005996;28;20038;-77
2021/05/05 12:40:48;;;;;;;8.27;3.63;;;19.60;99.90;;;;;;5004857;28;20033;-77
2021/05/05 12:43:21;;;;;;;10.93;2.65;;;19.60;99.90;;;;;;5009885;28;20026;-77
2021/05/05 12:45:48;;;;;;;8.77;3.63;;;19.70;99.90;;;;;;5010504;28;20022;-77
2021/05/05 12:48:21;;;;;;;18.58;3.78;;;19.60;99.90;;;;;;4999197;28;20057;-77
2021/05/05 12:50:47;;;;;;;6.22;2.83;;;19.60;99.90;;;;;;5000849;28;20014;-76
2021/05/05 12:53:13;;;;;;;13.00;3.60;;;19.50;99.90;;;;;;5003899;28;20029;-78
2021/05/05 12:55:41;;;;;;;6.68;3.38;;;19.50;99.90;;;;;;4994686;28;20395;-78